sensor_id;sensor_type;location;lat;lon;timestamp;P1;durP1;ratioP1;P2;durP2;ratioP2
61009;SDS011;46897;55.340;86.082;2022-12-29T00:00:22;25.45;;;8.63;;
61009;SDS011;46897;55.340;86.082;2022-12-29T00:02:52;51.28;;;16.00;;
61009;SDS011;46897;55.340;86.082;2022-12-29T00:05:21;34.35;;;11.68;;
61009;SDS011;46897;55.340;86.082;2022-12-29T00:07:52;51.45;;;16.67;;
61009;SDS011;46897;55.340;86.082;2022-12-29T00:10:21;48.45;;;16.17;;
61009;SDS011;46897;55.340;86.082;2022-12-29T00:12:50;44.03;;;13.55;;
61009;SDS011;46897;55.340;86.082;2022-12-29T00:15:38;54.90;;;17.70;;
61009;SDS011;46897;55.340;86.082;2022-12-29T00:18:07;56.78;;;19.83;;
61009;SDS011;46897;55.340;86.082;2022-12-29T00:20:37;64.85;;;21.58;;
61009;SDS011;46897;55.340;86.082;2022-12-29T00:23:24;66.53;;;21.85;;
61009;SDS011;46897;55.340;86.082;2022-12-29T00:26:12;74.80;;;24.33;;
61009;SDS011;46897;55.340;86.082;2022-12-29T00:29:00;43.75;;;17.75;;
61009;SDS011;46897;55.340;86.082;2022-12-29T00:31:48;66.97;;;23.88;;
61009;SDS011;46897;55.340;86.082;2022-12-29T00:34:34;64.57;;;22.00;;
61009;SDS011;46897;55.340;86.082;2022-12-29T00:37:21;61.30;;;22.05;;
61009;SDS011;46897;55.340;86.082;2022-12-29T00:40:12;55.22;;;18.20;;
61009;SDS011;46897;55.340;86.082;2022-12-29T00:42:59;57.78;;;17.67;;
61009;SDS011;46897;55.340;86.082;2022-12-29T00:45:45;68.43;;;22.63;;
61009;SDS011;46897;55.340;86.082;2022-12-29T00:48:16;60.47;;;20.67;;
61009;SDS011;46897;55.340;86.082;2022-12-29T00:51:06;54.78;;;17.88;;
61009;SDS011;46897;55.340;86.082;2022-12-29T00:53:35;70.55;;;20.73;;
61009;SDS011;46897;55.340;86.082;2022-12-29T00:56:04;84.78;;;26.17;;
61009;SDS011;46897;55.340;86.082;2022-12-29T00:58:33;77.18;;;25.83;;
61009;SDS011;46897;55.340;86.082;2022-12-29T01:01:03;75.60;;;21.30;;
61009;SDS011;46897;55.340;86.082;2022-12-29T01:03:35;84.35;;;25.60;;
61009;SDS011;46897;55.340;86.082;2022-12-29T01:06:06;56.58;;;18.00;;
61009;SDS011;46897;55.340;86.082;2022-12-29T01:08:36;70.70;;;24.90;;
61009;SDS011;46897;55.340;86.082;2022-12-29T01:11:06;50.72;;;18.65;;
61009;SDS011;46897;55.340;86.082;2022-12-29T01:13:36;52.28;;;19.17;;
61009;SDS011;46897;55.340;86.082;2022-12-29T01:16:05;40.22;;;12.50;;
61009;SDS011;46897;55.340;86.082;2022-12-29T01:18:37;53.05;;;18.02;;
61009;SDS011;46897;55.340;86.082;2022-12-29T01:21:06;30.45;;;10.00;;
61009;SDS011;46897;55.340;86.082;2022-12-29T01:23:35;46.90;;;17.25;;
61009;SDS011;46897;55.340;86.082;2022-12-29T01:26:10;50.92;;;15.98;;
61009;SDS011;46897;55.340;86.082;2022-12-29T01:28:43;74.85;;;24.13;;
61009;SDS011;46897;55.340;86.082;2022-12-29T01:31:13;65.68;;;20.70;;
61009;SDS011;46897;55.340;86.082;2022-12-29T01:33:45;89.90;;;28.38;;
61009;SDS011;46897;55.340;86.082;2022-12-29T01:36:14;85.45;;;27.63;;
61009;SDS011;46897;55.340;86.082;2022-12-29T01:38:45;41.25;;;16.52;;
61009;SDS011;46897;55.340;86.082;2022-12-29T01:41:15;57.25;;;17.90;;
61009;SDS011;46897;55.340;86.082;2022-12-29T01:43:46;55.05;;;14.93;;
61009;SDS011;46897;55.340;86.082;2022-12-29T01:46:21;54.28;;;16.70;;
61009;SDS011;46897;55.340;86.082;2022-12-29T01:48:57;69.13;;;22.63;;
61009;SDS011;46897;55.340;86.082;2022-12-29T01:51:34;32.83;;;11.73;;
61009;SDS011;46897;55.340;86.082;2022-12-29T01:54:07;35.30;;;13.43;;
61009;SDS011;46897;55.340;86.082;2022-12-29T01:56:40;41.88;;;13.18;;
61009;SDS011;46897;55.340;86.082;2022-12-29T01:59:10;41.97;;;14.88;;
61009;SDS011;46897;55.340;86.082;2022-12-29T02:01:44;21.42;;;6.20;;
61009;SDS011;46897;55.340;86.082;2022-12-29T02:04:15;36.38;;;12.35;;
61009;SDS011;46897;55.340;86.082;2022-12-29T02:06:45;34.08;;;11.65;;
61009;SDS011;46897;55.340;86.082;2022-12-29T02:09:19;36.92;;;14.10;;
61009;SDS011;46897;55.340;86.082;2022-12-29T02:11:49;32.90;;;12.70;;
61009;SDS011;46897;55.340;86.082;2022-12-29T02:14:18;41.85;;;16.67;;
61009;SDS011;46897;55.340;86.082;2022-12-29T02:16:52;158.77;;;47.13;;
61009;SDS011;46897;55.340;86.082;2022-12-29T02:19:47;115.00;;;32.03;;
61009;SDS011;46897;55.340;86.082;2022-12-29T02:22:59;64.85;;;23.95;;
61009;SDS011;46897;55.340;86.082;2022-12-29T02:25:58;83.32;;;25.42;;
61009;SDS011;46897;55.340;86.082;2022-12-29T02:28:55;243.98;;;76.53;;
61009;SDS011;46897;55.340;86.082;2022-12-29T02:31:48;242.25;;;74.28;;
61009;SDS011;46897;55.340;86.082;2022-12-29T02:36:56;203.57;;;62.20;;
61009;SDS011;46897;55.340;86.082;2022-12-29T02:39:34;182.27;;;54.35;;
61009;SDS011;46897;55.340;86.082;2022-12-29T02:42:09;246.52;;;76.70;;
61009;SDS011;46897;55.340;86.082;2022-12-29T02:44:47;214.68;;;63.95;;
61009;SDS011;46897;55.340;86.082;2022-12-29T02:47:26;222.63;;;71.93;;
61009;SDS011;46897;55.340;86.082;2022-12-29T02:50:05;248.15;;;77.43;;
61009;SDS011;46897;55.340;86.082;2022-12-29T02:52:40;240.75;;;75.20;;
61009;SDS011;46897;55.340;86.082;2022-12-29T02:55:16;233.43;;;72.43;;
61009;SDS011;46897;55.340;86.082;2022-12-29T02:57:47;255.13;;;74.05;;
61009;SDS011;46897;55.340;86.082;2022-12-29T03:00:17;234.43;;;69.47;;
61009;SDS011;46897;55.340;86.082;2022-12-29T03:02:54;237.60;;;69.93;;
61009;SDS011;46897;55.340;86.082;2022-12-29T03:05:50;314.92;;;85.53;;
61009;SDS011;46897;55.340;86.082;2022-12-29T03:08:39;310.17;;;94.43;;
61009;SDS011;46897;55.340;86.082;2022-12-29T03:11:12;278.42;;;83.75;;
61009;SDS011;46897;55.340;86.082;2022-12-29T03:13:56;280.65;;;84.55;;
61009;SDS011;46897;55.340;86.082;2022-12-29T03:16:48;262.42;;;85.45;;
61009;SDS011;46897;55.340;86.082;2022-12-29T03:19:25;244.35;;;79.75;;
61009;SDS011;46897;55.340;86.082;2022-12-29T03:21:57;235.25;;;77.93;;
61009;SDS011;46897;55.340;86.082;2022-12-29T03:24:47;284.80;;;91.20;;
61009;SDS011;46897;55.340;86.082;2022-12-29T03:27:19;261.23;;;77.97;;
61009;SDS011;46897;55.340;86.082;2022-12-29T03:29:54;255.18;;;78.07;;
61009;SDS011;46897;55.340;86.082;2022-12-29T03:32:28;256.38;;;82.05;;
61009;SDS011;46897;55.340;86.082;2022-12-29T03:35:03;278.45;;;81.10;;
61009;SDS011;46897;55.340;86.082;2022-12-29T03:37:36;301.63;;;88.55;;
61009;SDS011;46897;55.340;86.082;2022-12-29T03:40:09;303.77;;;90.05;;
61009;SDS011;46897;55.340;86.082;2022-12-29T03:42:39;346.08;;;106.60;;
61009;SDS011;46897;55.340;86.082;2022-12-29T03:45:10;341.50;;;104.82;;
61009;SDS011;46897;55.340;86.082;2022-12-29T03:47:39;340.35;;;104.05;;
61009;SDS011;46897;55.340;86.082;2022-12-29T03:50:12;321.17;;;99.95;;
61009;SDS011;46897;55.340;86.082;2022-12-29T03:52:43;284.27;;;93.70;;
61009;SDS011;46897;55.340;86.082;2022-12-29T03:55:13;294.63;;;96.43;;
61009;SDS011;46897;55.340;86.082;2022-12-29T03:57:44;340.08;;;109.75;;
61009;SDS011;46897;55.340;86.082;2022-12-29T04:00:13;314.05;;;98.90;;
61009;SDS011;46897;55.340;86.082;2022-12-29T04:02:43;289.00;;;92.00;;
61009;SDS011;46897;55.340;86.082;2022-12-29T04:05:14;301.80;;;96.10;;
61009;SDS011;46897;55.340;86.082;2022-12-29T04:07:44;306.70;;;96.47;;
61009;SDS011;46897;55.340;86.082;2022-12-29T04:10:13;290.20;;;89.93;;
61009;SDS011;46897;55.340;86.082;2022-12-29T04:12:42;296.13;;;88.95;;
61009;SDS011;46897;55.340;86.082;2022-12-29T04:15:13;317.98;;;100.95;;
61009;SDS011;46897;55.340;86.082;2022-12-29T04:17:43;278.58;;;90.15;;
61009;SDS011;46897;55.340;86.082;2022-12-29T04:20:13;325.48;;;96.40;;
61009;SDS011;46897;55.340;86.082;2022-12-29T04:23:01;330.42;;;103.75;;
61009;SDS011;46897;55.340;86.082;2022-12-29T04:25:31;313.17;;;96.25;;
61009;SDS011;46897;55.340;86.082;2022-12-29T04:28:00;332.80;;;95.45;;
61009;SDS011;46897;55.340;86.082;2022-12-29T04:30:29;355.58;;;105.78;;
61009;SDS011;46897;55.340;86.082;2022-12-29T04:32:59;339.20;;;100.15;;
61009;SDS011;46897;55.340;86.082;2022-12-29T04:35:30;340.45;;;104.68;;
61009;SDS011;46897;55.340;86.082;2022-12-29T04:37:59;302.88;;;94.53;;
61009;SDS011;46897;55.340;86.082;2022-12-29T04:40:29;320.80;;;105.13;;
61009;SDS011;46897;55.340;86.082;2022-12-29T04:42:59;299.52;;;98.13;;
61009;SDS011;46897;55.340;86.082;2022-12-29T04:45:28;291.80;;;96.18;;
61009;SDS011;46897;55.340;86.082;2022-12-29T04:47:58;297.52;;;95.60;;
61009;SDS011;46897;55.340;86.082;2022-12-29T04:50:27;283.27;;;91.43;;
61009;SDS011;46897;55.340;86.082;2022-12-29T04:52:57;287.88;;;92.03;;
61009;SDS011;46897;55.340;86.082;2022-12-29T04:55:27;244.68;;;81.05;;
61009;SDS011;46897;55.340;86.082;2022-12-29T04:57:56;254.02;;;80.65;;
61009;SDS011;46897;55.340;86.082;2022-12-29T05:00:25;248.93;;;83.55;;
61009;SDS011;46897;55.340;86.082;2022-12-29T05:02:54;269.65;;;82.72;;
61009;SDS011;46897;55.340;86.082;2022-12-29T05:05:24;331.90;;;97.95;;
61009;SDS011;46897;55.340;86.082;2022-12-29T05:07:53;283.95;;;91.75;;
61009;SDS011;46897;55.340;86.082;2022-12-29T05:10:23;324.00;;;100.00;;
61009;SDS011;46897;55.340;86.082;2022-12-29T05:12:53;252.48;;;82.53;;
61009;SDS011;46897;55.340;86.082;2022-12-29T05:15:22;286.30;;;91.85;;
61009;SDS011;46897;55.340;86.082;2022-12-29T05:17:51;238.07;;;78.75;;
61009;SDS011;46897;55.340;86.082;2022-12-29T05:20:20;241.70;;;76.65;;
61009;SDS011;46897;55.340;86.082;2022-12-29T05:22:49;247.00;;;80.85;;
61009;SDS011;46897;55.340;86.082;2022-12-29T05:25:18;264.67;;;82.40;;
61009;SDS011;46897;55.340;86.082;2022-12-29T05:27:49;253.07;;;77.68;;
61009;SDS011;46897;55.340;86.082;2022-12-29T05:30:18;252.73;;;83.50;;
61009;SDS011;46897;55.340;86.082;2022-12-29T05:32:47;248.50;;;81.35;;
61009;SDS011;46897;55.340;86.082;2022-12-29T05:35:16;229.15;;;76.38;;
61009;SDS011;46897;55.340;86.082;2022-12-29T05:37:46;236.48;;;77.07;;
61009;SDS011;46897;55.340;86.082;2022-12-29T05:40:15;225.55;;;69.85;;
61009;SDS011;46897;55.340;86.082;2022-12-29T05:42:44;270.38;;;100.05;;
61009;SDS011;46897;55.340;86.082;2022-12-29T05:45:15;256.05;;;84.38;;
61009;SDS011;46897;55.340;86.082;2022-12-29T05:47:44;258.60;;;88.90;;
61009;SDS011;46897;55.340;86.082;2022-12-29T05:50:13;242.88;;;81.40;;
61009;SDS011;46897;55.340;86.082;2022-12-29T05:52:43;230.07;;;79.18;;
61009;SDS011;46897;55.340;86.082;2022-12-29T05:55:13;231.02;;;75.82;;
61009;SDS011;46897;55.340;86.082;2022-12-29T05:57:44;207.77;;;66.20;;
61009;SDS011;46897;55.340;86.082;2022-12-29T06:00:15;219.45;;;66.90;;
61009;SDS011;46897;55.340;86.082;2022-12-29T06:02:45;194.93;;;67.68;;
61009;SDS011;46897;55.340;86.082;2022-12-29T06:05:14;219.10;;;67.38;;
61009;SDS011;46897;55.340;86.082;2022-12-29T06:07:44;208.43;;;62.53;;
61009;SDS011;46897;55.340;86.082;2022-12-29T06:10:13;196.57;;;62.45;;
61009;SDS011;46897;55.340;86.082;2022-12-29T06:12:42;181.27;;;55.90;;
61009;SDS011;46897;55.340;86.082;2022-12-29T06:15:12;204.70;;;62.35;;
61009;SDS011;46897;55.340;86.082;2022-12-29T06:17:44;174.73;;;58.45;;
61009;SDS011;46897;55.340;86.082;2022-12-29T06:20:13;172.90;;;57.78;;
61009;SDS011;46897;55.340;86.082;2022-12-29T06:22:42;195.55;;;57.95;;
61009;SDS011;46897;55.340;86.082;2022-12-29T06:25:12;162.80;;;52.42;;
61009;SDS011;46897;55.340;86.082;2022-12-29T06:27:41;155.70;;;49.85;;
61009;SDS011;46897;55.340;86.082;2022-12-29T06:30:11;146.10;;;49.38;;
61009;SDS011;46897;55.340;86.082;2022-12-29T06:32:44;148.63;;;47.92;;
61009;SDS011;46897;55.340;86.082;2022-12-29T06:35:13;149.23;;;49.13;;
61009;SDS011;46897;55.340;86.082;2022-12-29T06:37:43;153.30;;;49.92;;
61009;SDS011;46897;55.340;86.082;2022-12-29T06:40:12;152.27;;;48.17;;
61009;SDS011;46897;55.340;86.082;2022-12-29T06:42:41;129.80;;;43.78;;
61009;SDS011;46897;55.340;86.082;2022-12-29T06:45:10;139.10;;;47.67;;
61009;SDS011;46897;55.340;86.082;2022-12-29T06:47:39;130.25;;;43.90;;
61009;SDS011;46897;55.340;86.082;2022-12-29T06:50:10;155.02;;;53.17;;
61009;SDS011;46897;55.340;86.082;2022-12-29T06:52:39;175.60;;;55.42;;
61009;SDS011;46897;55.340;86.082;2022-12-29T06:55:09;155.65;;;53.90;;
61009;SDS011;46897;55.340;86.082;2022-12-29T06:57:38;165.65;;;56.65;;
61009;SDS011;46897;55.340;86.082;2022-12-29T07:00:08;163.77;;;52.80;;
61009;SDS011;46897;55.340;86.082;2022-12-29T07:02:37;171.02;;;53.65;;
61009;SDS011;46897;55.340;86.082;2022-12-29T07:05:07;176.60;;;54.40;;
61009;SDS011;46897;55.340;86.082;2022-12-29T07:07:38;196.88;;;61.35;;
61009;SDS011;46897;55.340;86.082;2022-12-29T07:10:07;181.68;;;58.03;;
61009;SDS011;46897;55.340;86.082;2022-12-29T07:12:37;227.00;;;65.15;;
61009;SDS011;46897;55.340;86.082;2022-12-29T07:15:06;196.10;;;58.13;;
61009;SDS011;46897;55.340;86.082;2022-12-29T07:17:36;171.25;;;58.25;;
61009;SDS011;46897;55.340;86.082;2022-12-29T07:20:06;165.52;;;52.72;;
61009;SDS011;46897;55.340;86.082;2022-12-29T07:22:36;144.50;;;44.28;;
61009;SDS011;46897;55.340;86.082;2022-12-29T07:25:07;154.18;;;49.13;;
61009;SDS011;46897;55.340;86.082;2022-12-29T07:27:36;150.77;;;48.45;;
61009;SDS011;46897;55.340;86.082;2022-12-29T07:30:06;155.50;;;52.70;;
61009;SDS011;46897;55.340;86.082;2022-12-29T07:32:36;159.70;;;49.78;;
61009;SDS011;46897;55.340;86.082;2022-12-29T07:35:05;158.40;;;51.65;;
61009;SDS011;46897;55.340;86.082;2022-12-29T07:37:35;159.30;;;50.30;;
61009;SDS011;46897;55.340;86.082;2022-12-29T07:40:06;151.82;;;50.10;;
61009;SDS011;46897;55.340;86.082;2022-12-29T07:42:37;152.05;;;51.05;;
61009;SDS011;46897;55.340;86.082;2022-12-29T07:45:07;146.25;;;47.17;;
61009;SDS011;46897;55.340;86.082;2022-12-29T07:47:37;136.40;;;47.85;;
61009;SDS011;46897;55.340;86.082;2022-12-29T07:50:06;139.82;;;49.47;;
61009;SDS011;46897;55.340;86.082;2022-12-29T07:52:36;153.68;;;48.72;;
61009;SDS011;46897;55.340;86.082;2022-12-29T07:55:07;162.35;;;55.30;;
61009;SDS011;46897;55.340;86.082;2022-12-29T07:57:37;164.30;;;53.50;;
61009;SDS011;46897;55.340;86.082;2022-12-29T08:00:07;143.13;;;47.17;;
61009;SDS011;46897;55.340;86.082;2022-12-29T08:02:37;145.82;;;47.60;;
61009;SDS011;46897;55.340;86.082;2022-12-29T08:05:07;137.27;;;50.83;;
61009;SDS011;46897;55.340;86.082;2022-12-29T08:07:36;163.15;;;55.47;;
61009;SDS011;46897;55.340;86.082;2022-12-29T08:10:08;151.27;;;49.95;;
61009;SDS011;46897;55.340;86.082;2022-12-29T08:12:38;122.57;;;44.55;;
61009;SDS011;46897;55.340;86.082;2022-12-29T08:15:08;136.80;;;48.28;;
61009;SDS011;46897;55.340;86.082;2022-12-29T08:17:39;143.05;;;47.60;;
61009;SDS011;46897;55.340;86.082;2022-12-29T08:20:08;126.40;;;46.45;;
61009;SDS011;46897;55.340;86.082;2022-12-29T08:22:38;157.82;;;49.50;;
61009;SDS011;46897;55.340;86.082;2022-12-29T08:25:09;135.30;;;44.50;;
61009;SDS011;46897;55.340;86.082;2022-12-29T08:27:38;127.97;;;39.70;;
61009;SDS011;46897;55.340;86.082;2022-12-29T08:30:08;128.98;;;41.78;;
61009;SDS011;46897;55.340;86.082;2022-12-29T08:32:38;113.15;;;39.97;;
61009;SDS011;46897;55.340;86.082;2022-12-29T08:35:07;107.38;;;38.50;;
61009;SDS011;46897;55.340;86.082;2022-12-29T08:37:37;129.52;;;42.00;;
61009;SDS011;46897;55.340;86.082;2022-12-29T08:40:06;140.38;;;45.28;;
61009;SDS011;46897;55.340;86.082;2022-12-29T08:42:38;149.73;;;51.03;;
61009;SDS011;46897;55.340;86.082;2022-12-29T08:45:07;152.15;;;52.42;;
61009;SDS011;46897;55.340;86.082;2022-12-29T08:47:38;143.77;;;49.25;;
61009;SDS011;46897;55.340;86.082;2022-12-29T08:50:07;142.73;;;43.85;;
61009;SDS011;46897;55.340;86.082;2022-12-29T08:52:36;122.88;;;39.70;;
61009;SDS011;46897;55.340;86.082;2022-12-29T08:55:05;114.80;;;39.47;;
61009;SDS011;46897;55.340;86.082;2022-12-29T08:57:36;101.47;;;35.15;;
61009;SDS011;46897;55.340;86.082;2022-12-29T09:00:06;104.05;;;34.78;;
61009;SDS011;46897;55.340;86.082;2022-12-29T09:02:36;94.78;;;32.05;;
61009;SDS011;46897;55.340;86.082;2022-12-29T09:05:06;82.68;;;29.25;;
61009;SDS011;46897;55.340;86.082;2022-12-29T09:07:36;89.68;;;31.38;;
61009;SDS011;46897;55.340;86.082;2022-12-29T09:10:06;88.88;;;31.65;;
61009;SDS011;46897;55.340;86.082;2022-12-29T09:12:37;92.65;;;32.35;;
61009;SDS011;46897;55.340;86.082;2022-12-29T09:15:07;94.47;;;32.90;;
61009;SDS011;46897;55.340;86.082;2022-12-29T09:17:37;102.38;;;36.75;;
61009;SDS011;46897;55.340;86.082;2022-12-29T09:20:13;109.70;;;37.72;;
61009;SDS011;46897;55.340;86.082;2022-12-29T09:22:44;96.47;;;32.53;;
61009;SDS011;46897;55.340;86.082;2022-12-29T09:25:14;91.88;;;28.85;;
61009;SDS011;46897;55.340;86.082;2022-12-29T09:27:45;163.45;;;50.10;;
61009;SDS011;46897;55.340;86.082;2022-12-29T09:30:15;127.63;;;43.63;;
61009;SDS011;46897;55.340;86.082;2022-12-29T09:32:44;175.52;;;56.63;;
61009;SDS011;46897;55.340;86.082;2022-12-29T09:35:20;174.27;;;52.70;;
61009;SDS011;46897;55.340;86.082;2022-12-29T09:37:49;185.32;;;59.03;;
61009;SDS011;46897;55.340;86.082;2022-12-29T09:40:26;213.02;;;63.45;;
61009;SDS011;46897;55.340;86.082;2022-12-29T09:45:59;235.27;;;70.15;;
61009;SDS011;46897;55.340;86.082;2022-12-29T09:48:37;237.13;;;66.00;;
